Time;durP1;ratioP1;P1;durP2;ratioP2;P2;SDS_P1;SDS_P2;PMS_P1;PMS_P2;Temp;Humidity;BMP_temperature;BMP_pressure;BME280_temperature;BME280_humidity;BME280_pressure;Samples;Min_cycle;Max_cycle;Signal;HPM_P1;HPM_P2
2024/01/24 00:01:34;;;;;;;22.08;3.70;;;10.40;99.90;;;;;;5046675;28;20041;-68
2024/01/24 00:04:00;;;;;;;25.52;4.65;;;10.40;99.90;;;;;;5045678;28;20051;-68
2024/01/24 00:06:26;;;;;;;27.42;4.20;;;10.40;99.90;;;;;;5063374;28;20060;-68
2024/01/24 00:08:52;;;;;;;21.80;3.92;;;10.40;99.90;;;;;;5000591;28;1296024;-68
2024/01/24 00:11:19;;;;;;;18.45;3.55;;;10.40;99.90;;;;;;5064132;28;20130;-68
2024/01/24 00:13:45;;;;;;;18.52;4.32;;;10.40;99.90;;;;;;5064012;28;20492;-66
2024/01/24 00:16:10;;;;;;;23.42;4.55;;;10.40;99.90;;;;;;5063792;28;20157;-67
2024/01/24 00:18:36;;;;;;;29.73;3.70;;;10.40;99.90;;;;;;5046800;28;20040;-67
2024/01/24 00:21:02;;;;;;;24.30;3.90;;;10.40;99.90;;;;;;5045465;28;20036;-68
2024/01/24 00:23:27;;;;;;;25.40;3.65;;;10.40;99.90;;;;;;5061710;28;20059;-67
2024/01/24 00:25:53;;;;;;;26.55;4.13;;;10.40;99.90;;;;;;5046248;28;20490;-68
2024/01/24 00:28:22;;;;;;;21.60;3.80;;;10.50;99.90;;;;;;5063492;28;20052;-68
2024/01/24 00:30:48;;;;;;;25.20;4.78;;;10.40;99.90;;;;;;5062881;28;20062;-68
2024/01/24 00:33:15;;;;;;;26.42;4.20;;;10.40;99.90;;;;;;5045730;28;20052;-67
2024/01/24 00:35:41;;;;;;;26.77;4.45;;;10.50;99.90;;;;;;5062479;28;20060;-67
2024/01/24 00:38:06;;;;;;;28.17;4.20;;;10.40;99.90;;;;;;5046206;28;20047;-67
2024/01/24 00:40:32;;;;;;;28.58;3.88;;;10.40;99.90;;;;;;5045292;28;20036;-68
2024/01/24 00:42:58;;;;;;;32.35;4.57;;;10.50;99.90;;;;;;5061542;28;20189;-68
2024/01/24 00:45:24;;;;;;;34.85;5.20;;;10.50;99.90;;;;;;5062380;28;20396;-67
2024/01/24 00:47:52;;;;;;;28.40;4.13;;;10.50;99.90;;;;;;5062932;28;20044;-67
2024/01/24 00:50:18;;;;;;;26.40;4.32;;;10.90;99.90;;;;;;5062129;28;20447;-67
2024/01/24 00:52:44;;;;;;;26.00;3.78;;;10.50;99.90;;;;;;5061926;28;20052;-68
2024/01/24 00:55:10;;;;;;;28.15;3.88;;;10.50;99.90;;;;;;5062027;28;20085;-69
2024/01/24 00:57:36;;;;;;;29.77;3.22;;;10.40;99.90;;;;;;5063380;28;20493;-67
2024/01/24 01:00:03;;;;;;;25.00;3.90;;;10.50;99.90;;;;;;5062354;28;20044;-67
2024/01/24 01:02:29;;;;;;;26.45;4.13;;;10.50;99.90;;;;;;5059737;28;20404;-67
2024/01/24 01:04:55;;;;;;;29.85;4.35;;;10.50;99.90;;;;;;5045610;28;20053;-67
2024/01/24 01:07:21;;;;;;;21.30;3.90;;;10.50;99.90;;;;;;5046330;28;20710;-68
2024/01/24 01:09:46;;;;;;;32.80;4.57;;;10.50;99.90;;;;;;5061665;28;20040;-69
2024/01/24 01:12:15;;;;;;;24.83;3.78;;;10.50;99.90;;;;;;5061316;28;20105;-67
2024/01/24 01:14:41;;;;;;;23.98;4.55;;;10.50;99.90;;;;;;5059963;28;20051;-68
2024/01/24 01:17:06;;;;;;;26.33;4.03;;;10.50;99.90;;;;;;5061692;28;20484;-69
2024/01/24 01:19:32;;;;;;;21.20;3.70;;;10.90;99.90;;;;;;5045201;28;20039;-67
2024/01/24 01:21:58;;;;;;;21.08;3.65;;;10.50;99.90;;;;;;5044769;28;20079;-68
2024/01/24 01:24:23;;;;;;;23.83;3.40;;;10.50;99.90;;;;;;5061309;28;20483;-68
2024/01/24 01:26:49;;;;;;;22.15;2.80;;;10.50;99.90;;;;;;5061263;28;20049;-68
2024/01/24 01:29:15;;;;;;;25.27;4.05;;;10.50;99.90;;;;;;5045085;28;20081;-69
2024/01/24 01:31:41;;;;;;;23.75;3.50;;;10.60;99.90;;;;;;5044204;28;20052;-69
2024/01/24 01:34:06;;;;;;;19.67;3.40;;;10.60;99.90;;;;;;5044990;28;20049;-68
2024/01/24 01:36:32;;;;;;;20.90;3.00;;;10.70;99.90;;;;;;5062693;28;20715;-68
2024/01/24 01:38:58;;;;;;;19.67;3.47;;;10.60;99.90;;;;;;5045470;28;20052;-68
2024/01/24 01:41:24;;;;;;;21.50;3.03;;;10.60;99.90;;;;;;5059950;28;20090;-68
2024/01/24 01:43:52;;;;;;;24.85;3.83;;;10.60;99.90;;;;;;5045326;28;20059;-67
2024/01/24 01:46:18;;;;;;;19.38;3.45;;;10.60;99.90;;;;;;5045883;28;20082;-67
2024/01/24 01:48:45;;;;;;;21.35;3.42;;;10.70;99.90;;;;;;5060773;28;20041;-67
2024/01/24 01:51:11;;;;;;;21.48;3.00;;;10.70;99.90;;;;;;5045930;28;20048;-68
2024/01/24 01:53:38;;;;;;;17.90;3.13;;;10.80;99.90;;;;;;5058675;28;20048;-69
2024/01/24 01:56:12;;;;;;;14.40;2.70;;;10.70;99.90;;;;;;5043817;28;20040;-69
2024/01/24 01:58:39;;;;;;;17.52;3.45;;;10.70;99.90;;;;;;5043999;28;20041;-67
2024/01/24 02:01:06;;;;;;;21.13;3.03;;;10.80;99.90;;;;;;5043655;28;20036;-67
2024/01/24 02:03:32;;;;;;;17.40;2.25;;;10.80;99.90;;;;;;5059660;28;20086;-68
2024/01/24 02:06:00;;;;;;;14.38;2.53;;;10.80;99.90;;;;;;5062741;28;20294;-68
2024/01/24 02:08:25;;;;;;;20.10;2.33;;;10.90;99.90;;;;;;5045025;28;20044;-68
2024/01/24 02:10:51;;;;;;;15.45;2.65;;;10.90;99.90;;;;;;5041618;28;20868;-69
2024/01/24 02:13:17;;;;;;;17.40;2.03;;;11.00;99.90;;;;;;5059234;28;20398;-67
2024/01/24 02:15:43;;;;;;;10.93;2.17;;;11.00;99.90;;;;;;5061253;28;20135;-67
2024/01/24 02:18:08;;;;;;;18.10;2.63;;;11.00;99.90;;;;;;5061349;28;20128;-67
2024/01/24 02:20:34;;;;;;;18.25;2.22;;;11.10;99.90;;;;;;5042871;28;20119;-68
2024/01/24 02:23:00;;;;;;;17.95;2.40;;;11.50;99.90;;;;;;5061375;28;20044;-69
2024/01/24 02:25:26;;;;;;;17.73;2.83;;;11.10;99.90;;;;;;5063173;28;20468;-68
2024/01/24 02:27:52;;;;;;;9.85;2.15;;;11.10;99.90;;;;;;5061069;28;20044;-69
2024/01/24 02:30:18;;;;;;;16.08;3.15;;;11.20;99.90;;;;;;5059465;28;20048;-68
2024/01/24 02:32:43;;;;;;;13.63;2.47;;;11.20;99.90;;;;;;5060258;28;20063;-69
2024/01/24 02:35:09;;;;;;;16.45;2.35;;;11.20;99.90;;;;;;5061305;28;20079;-71
2024/01/24 02:37:36;;;;;;;14.07;2.78;;;11.20;99.90;;;;;;5061857;28;20063;-70
2024/01/24 02:40:02;;;;;;;16.77;3.58;;;11.20;99.90;;;;;;5059565;28;20033;-69
2024/01/24 02:42:28;;;;;;;15.18;3.05;;;11.20;99.90;;;;;;5060906;28;20044;-69
2024/01/24 02:44:53;;;;;;;13.95;2.55;;;11.20;99.90;;;;;;5061881;28;20449;-68
2024/01/24 02:47:22;;;;;;;11.88;2.28;;;11.20;99.90;;;;;;5060865;28;20045;-69
2024/01/24 02:49:48;;;;;;;14.43;2.92;;;11.20;99.90;;;;;;5060947;28;20451;-69
2024/01/24 02:52:14;;;;;;;19.17;2.67;;;11.20;99.90;;;;;;5076393;28;20052;-68
2024/01/24 02:54:41;;;;;;;16.60;3.47;;;11.20;99.90;;;;;;5043924;28;20393;-71
2024/01/24 02:57:07;;;;;;;19.30;2.53;;;11.20;99.90;;;;;;5061942;28;20045;-69
2024/01/24 02:59:33;;;;;;;19.75;3.30;;;11.80;99.90;;;;;;5042596;28;20032;-69
2024/01/24 03:01:59;;;;;;;16.48;3.17;;;11.20;99.90;;;;;;5063982;28;20098;-70
2024/01/24 03:04:24;;;;;;;19.08;3.03;;;11.10;99.90;;;;;;5047862;28;20771;-69
2024/01/24 03:06:55;;;;;;;20.65;3.58;;;11.10;99.90;;;;;;5064649;28;20056;-68
2024/01/24 03:09:22;;;;;;;14.75;3.03;;;11.00;99.90;;;;;;5048298;28;20048;-69
2024/01/24 03:11:47;;;;;;;30.33;4.68;;;11.00;99.90;;;;;;5063312;28;20534;-69
2024/01/24 03:14:13;;;;;;;25.08;3.78;;;11.00;99.90;;;;;;5063869;28;20044;-69
2024/01/24 03:16:39;;;;;;;17.90;3.00;;;11.00;99.90;;;;;;5065995;28;20074;-69
2024/01/24 03:19:06;;;;;;;22.27;3.78;;;10.90;99.90;;;;;;5065501;28;20056;-69
2024/01/24 03:21:32;;;;;;;23.02;3.65;;;10.90;99.90;;;;;;5066953;28;20036;-69
2024/01/24 03:23:58;;;;;;;21.77;3.40;;;10.90;99.90;;;;;;5047282;28;20051;-70
2024/01/24 03:26:24;;;;;;;25.45;3.80;;;10.80;99.90;;;;;;5064951;28;20045;-70
2024/01/24 03:28:50;;;;;;;24.38;4.10;;;10.80;99.90;;;;;;5064978;28;20520;-69
2024/01/24 03:31:16;;;;;;;18.67;3.95;;;10.80;99.90;;;;;;5065639;28;20036;-70
2024/01/24 03:33:42;;;;;;;26.73;4.18;;;10.80;99.90;;;;;;5065289;28;20036;-71
2024/01/24 03:36:08;;;;;;;23.58;3.80;;;11.10;99.90;;;;;;5064502;28;20063;-69
2024/01/24 03:38:34;;;;;;;29.65;4.25;;;10.70;99.90;;;;;;5064781;28;20044;-71
2024/01/24 03:41:00;;;;;;;23.35;4.18;;;10.70;99.90;;;;;;5047060;28;20048;-71
2024/01/24 03:43:26;;;;;;;24.35;4.22;;;10.70;99.90;;;;;;5062916;28;20055;-71
2024/01/24 03:45:52;;;;;;;24.17;3.90;;;10.70;99.90;;;;;;5048126;28;20052;-70
2024/01/24 03:48:17;;;;;;;23.17;4.15;;;10.70;99.90;;;;;;5047500;28;20040;-71
2024/01/24 03:50:43;;;;;;;17.10;3.15;;;10.70;99.90;;;;;;5062971;28;20058;-72
2024/01/24 03:53:09;;;;;;;30.90;4.45;;;10.70;99.90;;;;;;5047134;28;20052;-70
2024/01/24 03:55:34;;;;;;;34.90;5.78;;;10.70;99.90;;;;;;5063874;28;20040;-70
2024/01/24 03:58:00;;;;;;;36.05;5.88;;;11.10;99.90;;;;;;5046971;28;20447;-70
2024/01/24 04:00:27;;;;;;;18.80;3.05;;;10.70;99.90;;;;;;5062823;28;20126;-71
2024/01/24 04:02:53;;;;;;;30.50;4.75;;;10.80;99.90;;;;;;5047132;28;20513;-70
2024/01/24 04:05:19;;;;;;;20.75;3.97;;;10.80;99.90;;;;;;5048868;28;20047;-71
2024/01/24 04:07:45;;;;;;;25.42;4.03;;;10.80;99.90;;;;;;5063936;28;20432;-71
2024/01/24 04:10:11;;;;;;;30.27;4.40;;;10.70;99.90;;;;;;5063008;28;20085;-70
2024/01/24 04:12:38;;;;;;;26.95;4.03;;;10.80;99.90;;;;;;5064225;28;20079;-70
2024/01/24 04:15:05;;;;;;;27.35;4.40;;;10.70;99.90;;;;;;5062998;28;20060;-71
2024/01/24 04:17:31;;;;;;;26.17;4.40;;;10.70;99.90;;;;;;5046652;28;20044;-69
2024/01/24 04:19:56;;;;;;;29.33;4.10;;;10.70;99.90;;;;;;5063271;28;20297;-70
2024/01/24 04:22:22;;;;;;;29.88;4.65;;;10.60;99.90;;;;;;5064019;28;20040;-71
2024/01/24 04:24:48;;;;;;;27.50;4.75;;;10.60;99.90;;;;;;5063199;28;20101;-71
2024/01/24 04:27:14;;;;;;;34.08;6.40;;;10.50;99.90;;;;;;5062680;28;20051;-68
2024/01/24 04:29:42;;;;;;;26.77;5.30;;;10.50;99.90;;;;;;5063838;28;20063;-68
2024/01/24 04:32:08;;;;;;;34.88;5.13;;;10.40;99.90;;;;;;5061064;28;20133;-71
2024/01/24 04:34:33;;;;;;;26.75;4.43;;;10.40;99.90;;;;;;5046000;28;20049;-69
2024/01/24 04:36:59;;;;;;;32.60;5.45;;;10.40;99.90;;;;;;5063279;28;20456;-69
2024/01/24 04:39:25;;;;;;;31.75;4.95;;;10.30;99.90;;;;;;5063406;28;20068;-69
2024/01/24 04:41:50;;;;;;;34.65;5.70;;;10.30;99.90;;;;;;5062548;28;20052;-69
2024/01/24 04:44:16;;;;;;;35.15;5.72;;;10.30;99.90;;;;;;5063049;28;20123;-68
2024/01/24 04:46:42;;;;;;;30.80;5.57;;;10.30;99.90;;;;;;5046992;28;20040;-70
2024/01/24 04:49:08;;;;;;;26.63;5.28;;;10.20;99.90;;;;;;5062208;28;20044;-69
2024/01/24 04:51:37;;;;;;;34.38;6.60;;;10.20;99.90;;;;;;5061627;28;20037;-68
2024/01/24 04:54:04;;;;;;;32.67;5.07;;;10.20;99.90;;;;;;5061192;28;20056;-69
2024/01/24 04:56:29;;;;;;;35.25;5.78;;;10.20;99.90;;;;;;5045503;28;20081;-70
2024/01/24 04:58:55;;;;;;;37.13;5.82;;;10.20;99.90;;;;;;5062570;28;20582;-71
2024/01/24 05:01:21;;;;;;;36.83;5.78;;;10.20;99.90;;;;;;5045233;28;20048;-71
2024/01/24 05:03:47;;;;;;;40.20;6.07;;;10.20;99.90;;;;;;5062188;28;20101;-70
2024/01/24 05:06:12;;;;;;;24.30;4.90;;;10.20;99.90;;;;;;5060790;28;20045;-69
2024/01/24 05:08:39;;;;;;;36.33;6.10;;;10.20;99.90;;;;;;5063608;28;20047;-69
2024/01/24 05:11:05;;;;;;;37.78;5.57;;;10.20;99.90;;;;;;5061478;28;20048;-70
2024/01/24 05:13:31;;;;;;;42.60;6.63;;;10.20;99.90;;;;;;5064262;28;20042;-69
2024/01/24 05:15:58;;;;;;;32.05;5.15;;;10.20;99.90;;;;;;5046295;28;20586;-70
2024/01/24 05:18:23;;;;;;;38.05;6.93;;;10.30;99.90;;;;;;5058969;28;20054;-69
2024/01/24 05:20:49;;;;;;;38.95;6.32;;;10.20;99.90;;;;;;5061415;28;20505;-70
2024/01/24 05:23:15;;;;;;;34.63;5.07;;;10.20;99.90;;;;;;5059454;28;20043;-70
2024/01/24 05:25:42;;;;;;;39.40;5.85;;;10.20;99.90;;;;;;5060080;28;20032;-71
2024/01/24 05:28:09;;;;;;;41.58;7.25;;;10.20;99.90;;;;;;5060854;28;20059;-70
2024/01/24 05:30:34;;;;;;;46.80;7.07;;;10.20;99.90;;;;;;5043388;28;20040;-70
2024/01/24 05:33:00;;;;;;;45.05;6.97;;;10.20;99.90;;;;;;5043200;28;20485;-69
2024/01/24 05:35:26;;;;;;;34.95;6.50;;;10.20;99.90;;;;;;5059867;28;20048;-70
2024/01/24 05:37:52;;;;;;;44.38;6.60;;;10.20;99.90;;;;;;5060551;28;20066;-69
2024/01/24 05:40:18;;;;;;;39.55;6.80;;;10.10;99.90;;;;;;5061340;28;20055;-69
2024/01/24 05:42:44;;;;;;;44.03;6.25;;;10.10;99.90;;;;;;5062189;28;20041;-69
2024/01/24 05:45:11;;;;;;;44.22;6.40;;;10.10;99.90;;;;;;5060618;28;20127;-69
2024/01/24 05:47:42;;;;;;;39.30;6.57;;;10.10;99.90;;;;;;5062142;28;20461;-68
2024/01/24 05:50:12;;;;;;;35.50;6.32;;;10.10;99.90;;;;;;5062916;28;20505;-68
2024/01/24 05:52:42;;;;;;;41.28;6.07;;;10.10;99.90;;;;;;5062413;28;20036;-67
2024/01/24 05:55:11;;;;;;;40.65;6.55;;;10.00;99.90;;;;;;5042924;28;20440;-69
2024/01/24 05:57:41;;;;;;;39.83;7.38;;;10.00;99.90;;;;;;5045984;28;20048;-69
2024/01/24 06:00:09;;;;;;;36.75;6.18;;;10.10;99.90;;;;;;5046028;28;20053;-68
2024/01/24 06:02:38;;;;;;;47.55;6.47;;;10.00;99.90;;;;;;5059180;28;20478;-68
2024/01/24 06:05:04;;;;;;;41.80;7.90;;;10.00;99.90;;;;;;5045604;28;20413;-68
2024/01/24 06:07:31;;;;;;;43.60;6.75;;;10.00;99.90;;;;;;5056862;28;20044;-68
2024/01/24 06:09:57;;;;;;;36.40;6.78;;;9.90;99.90;;;;;;5089658;28;20095;-68
2024/01/24 06:12:23;;;;;;;43.03;6.72;;;9.90;99.90;;;;;;5044357;28;20043;-68
2024/01/24 06:14:49;;;;;;;40.60;6.50;;;9.90;99.90;;;;;;5043462;28;20101;-68
2024/01/24 06:17:16;;;;;;;44.75;7.28;;;9.90;99.90;;;;;;5072609;28;20040;-68
2024/01/24 06:19:45;;;;;;;40.95;6.95;;;9.90;99.90;;;;;;5053771;28;20119;-67
2024/01/24 06:22:10;;;;;;;44.55;7.47;;;9.90;99.90;;;;;;5037969;28;20158;-68
2024/01/24 06:24:37;;;;;;;47.53;7.75;;;9.90;99.90;;;;;;5059937;28;20037;-68
2024/01/24 06:27:03;;;;;;;41.03;7.40;;;9.90;99.90;;;;;;5056866;28;20029;-68
2024/01/24 06:29:29;;;;;;;49.25;8.27;;;9.90;99.90;;;;;;5055892;28;20552;-68
2024/01/24 06:31:55;;;;;;;40.45;6.55;;;9.80;99.90;;;;;;5031126;28;20052;-67
2024/01/24 06:34:21;;;;;;;40.47;7.07;;;9.80;99.90;;;;;;5054140;28;20087;-69
2024/01/24 06:36:49;;;;;;;46.97;6.97;;;9.80;99.90;;;;;;5056653;28;20110;-67
2024/01/24 06:39:14;;;;;;;51.25;6.95;;;9.80;99.90;;;;;;5059972;28;20635;-67
2024/01/24 06:41:42;;;;;;;37.13;6.95;;;9.80;99.90;;;;;;5056424;28;20048;-68
2024/01/24 06:44:07;;;;;;;41.47;6.90;;;9.70;99.90;;;;;;5036751;28;20068;-68
2024/01/24 06:46:42;;;;;;;37.20;6.78;;;9.70;99.90;;;;;;5056621;28;20109;-70
2024/01/24 06:49:10;;;;;;;42.22;8.02;;;9.70;99.90;;;;;;5046865;28;20587;-68
2024/01/24 06:51:39;;;;;;;39.53;6.38;;;9.70;99.90;;;;;;5059898;28;20045;-68
2024/01/24 06:54:08;;;;;;;41.85;7.43;;;9.70;99.90;;;;;;5054073;28;20417;-68
2024/01/24 06:56:33;;;;;;;43.03;7.82;;;9.60;99.90;;;;;;5055587;28;20080;-70
2024/01/24 06:59:00;;;;;;;45.05;7.25;;;9.60;99.90;;;;;;5038529;28;20076;-69
2024/01/24 07:01:26;;;;;;;39.33;6.82;;;10.00;99.90;;;;;;5041423;28;20220;-68
2024/01/24 07:03:52;;;;;;;36.10;7.43;;;9.60;99.90;;;;;;5058501;28;20056;-69
2024/01/24 07:06:18;;;;;;;36.28;6.90;;;9.60;99.90;;;;;;5061490;28;20106;-68
2024/01/24 07:08:44;;;;;;;31.30;6.13;;;9.60;99.90;;;;;;5037698;28;20041;-69
2024/01/24 07:11:10;;;;;;;50.85;7.90;;;9.50;99.90;;;;;;5043064;28;20068;-68
2024/01/24 07:13:39;;;;;;;40.25;6.93;;;9.50;99.90;;;;;;5025550;28;20071;-69
2024/01/24 07:16:05;;;;;;;37.53;5.82;;;9.50;99.90;;;;;;5033034;28;20182;-68
2024/01/24 07:18:32;;;;;;;38.95;7.10;;;9.50;99.90;;;;;;5033658;28;20391;-68
2024/01/24 07:20:59;;;;;;;41.22;6.53;;;9.50;99.90;;;;;;5022284;28;20710;-68
2024/01/24 07:23:25;;;;;;;43.00;6.70;;;9.50;99.90;;;;;;5068036;28;20416;-68
2024/01/24 07:25:51;;;;;;;42.25;6.13;;;9.50;99.90;;;;;;5018583;28;20060;-69
2024/01/24 07:28:18;;;;;;;39.50;6.70;;;9.50;99.90;;;;;;5028855;28;20106;-68
2024/01/24 07:30:44;;;;;;;43.30;7.35;;;9.50;99.90;;;;;;5045944;28;20064;-68
2024/01/24 07:33:10;;;;;;;33.47;6.32;;;9.50;99.90;;;;;;5030540;28;20566;-67
2024/01/24 07:35:36;;;;;;;36.10;5.53;;;9.50;99.90;;;;;;5040959;28;20048;-68
2024/01/24 07:38:01;;;;;;;49.15;7.10;;;9.50;99.90;;;;;;5070096;28;20049;-67
2024/01/24 07:40:27;;;;;;;34.65;6.35;;;9.50;99.90;;;;;;5040970;28;20531;-68
2024/01/24 07:42:53;;;;;;;45.55;8.73;;;9.50;99.90;;;;;;5038635;28;21815;-67
2024/01/24 07:45:19;;;;;;;43.63;6.90;;;9.40;99.90;;;;;;5036717;28;20064;-67
2024/01/24 07:47:45;;;;;;;41.38;7.88;;;9.60;99.90;;;;;;5032093;28;20502;-68
2024/01/24 07:50:14;;;;;;;39.78;6.53;;;9.50;99.90;;;;;;5051397;28;20697;-68
2024/01/24 07:52:39;;;;;;;32.00;6.60;;;9.50;99.90;;;;;;5060007;28;20076;-68
2024/01/24 07:55:05;;;;;;;42.70;7.50;;;9.40;99.90;;;;;;5059075;28;20083;-68
2024/01/24 07:57:31;;;;;;;44.03;6.70;;;9.50;99.90;;;;;;5041009;28;20555;-69
2024/01/24 07:59:57;;;;;;;37.70;6.57;;;9.40;99.90;;;;;;5058775;28;20037;-67
2024/01/24 08:02:23;;;;;;;34.38;5.97;;;9.50;99.90;;;;;;5063840;28;20045;-68
2024/01/24 08:04:48;;;;;;;43.60;6.75;;;9.40;99.90;;;;;;5057507;28;20051;-67
2024/01/24 08:07:14;;;;;;;37.15;6.68;;;9.40;99.90;;;;;;5053630;28;20058;-68
2024/01/24 08:09:40;;;;;;;38.33;6.45;;;9.40;99.90;;;;;;5039750;28;20048;-68
2024/01/24 08:12:06;;;;;;;37.72;6.53;;;9.40;99.90;;;;;;5054477;28;20084;-68
2024/01/24 08:14:31;;;;;;;38.53;6.78;;;9.40;99.90;;;;;;5043224;28;20046;-68
2024/01/24 08:17:04;;;;;;;46.38;6.82;;;9.40;99.90;;;;;;5044892;28;20040;-68
2024/01/24 08:19:30;;;;;;;44.97;5.72;;;9.40;99.90;;;;;;5073347;28;21306;-69
2024/01/24 08:21:56;;;;;;;38.13;6.90;;;9.40;99.90;;;;;;5042804;28;20052;-70
2024/01/24 08:24:21;;;;;;;34.30;6.43;;;9.40;99.90;;;;;;5043955;28;20485;-67
2024/01/24 08:26:48;;;;;;;47.67;8.77;;;9.40;99.90;;;;;;5063226;28;20045;-67
2024/01/24 08:29:15;;;;;;;39.42;6.65;;;9.40;99.90;;;;;;5043824;28;20054;-67
2024/01/24 08:31:41;;;;;;;49.83;7.63;;;9.40;99.90;;;;;;5045774;28;20040;-67
2024/01/24 08:34:07;;;;;;;41.97;6.82;;;9.40;99.90;;;;;;5040596;28;20055;-68
2024/01/24 08:36:33;;;;;;;46.65;7.47;;;9.40;99.90;;;;;;5052669;28;20541;-68
2024/01/24 08:38:58;;;;;;;40.88;8.02;;;9.40;99.90;;;;;;5038489;28;20044;-67
2024/01/24 08:41:24;;;;;;;43.35;6.97;;;9.60;99.90;;;;;;5059108;28;20489;-68
2024/01/24 08:43:57;;;;;;;29.02;5.45;;;9.30;99.90;;;;;;5050633;28;21193;-68
2024/01/24 08:46:22;;;;;;;39.10;6.00;;;9.30;99.90;;;;;;5070611;28;20217;-68
2024/01/24 08:48:48;;;;;;;41.83;7.72;;;9.40;99.90;;;;;;5056690;28;20157;-68
2024/01/24 08:51:14;;;;;;;31.25;6.10;;;9.40;99.90;;;;;;5057910;28;20128;-68
2024/01/24 08:53:39;;;;;;;54.83;11.00;;;9.40;99.90;;;;;;5059592;28;20048;-69
2024/01/24 08:56:05;;;;;;;35.40;6.95;;;9.40;99.90;;;;;;5040719;28;20044;-68
2024/01/24 08:58:31;;;;;;;39.05;6.38;;;9.40;99.90;;;;;;5053403;28;20053;-71
2024/01/24 09:00:57;;;;;;;36.67;6.88;;;9.40;99.90;;;;;;5055355;28;20049;-71
2024/01/24 09:03:22;;;;;;;34.78;6.22;;;9.40;99.90;;;;;;5057212;28;20048;-71
2024/01/24 09:05:51;;;;;;;43.67;7.22;;;9.90;99.90;;;;;;5058075;28;20060;-71
2024/01/24 09:08:17;;;;;;;42.00;7.15;;;9.40;99.90;;;;;;5054191;28;20087;-70
2024/01/24 09:10:43;;;;;;;48.97;7.75;;;9.40;99.90;;;;;;5058714;28;20079;-72
2024/01/24 09:13:08;;;;;;;42.53;6.30;;;9.40;99.90;;;;;;5042346;28;20082;-70
2024/01/24 09:15:34;;;;;;;36.95;6.72;;;9.40;99.90;;;;;;5056833;28;20040;-71
2024/01/24 09:18:00;;;;;;;42.28;8.10;;;9.40;99.90;;;;;;5056806;28;20612;-71
2024/01/24 09:20:26;;;;;;;39.33;6.45;;;9.40;99.90;;;;;;5059158;28;20041;-71
2024/01/24 09:22:53;;;;;;;43.47;7.57;;;9.40;99.90;;;;;;5057935;28;20094;-71
2024/01/24 09:25:19;;;;;;;40.15;6.13;;;9.40;99.90;;;;;;5061865;28;20413;-70
2024/01/24 09:27:45;;;;;;;41.13;6.57;;;9.50;99.90;;;;;;5043163;28;20037;-69
2024/01/24 09:30:12;;;;;;;42.08;7.15;;;9.50;99.90;;;;;;5041908;28;20070;-69
2024/01/24 09:32:37;;;;;;;51.50;9.00;;;9.50;99.90;;;;;;5062450;28;20036;-70
2024/01/24 09:35:03;;;;;;;40.25;6.53;;;9.50;99.90;;;;;;5040497;28;20046;-70
2024/01/24 09:37:30;;;;;;;39.17;5.90;;;9.50;99.90;;;;;;5048062;28;20063;-71
2024/01/24 09:39:56;;;;;;;32.50;7.10;;;9.50;99.90;;;;;;5041732;28;20128;-70
2024/01/24 09:42:28;;;;;;;42.92;6.45;;;9.60;99.90;;;;;;5043611;28;20055;-70
2024/01/24 09:44:57;;;;;;;44.42;7.15;;;10.00;99.90;;;;;;5057953;28;20045;-71
2024/01/24 09:47:24;;;;;;;45.92;7.35;;;9.60;99.90;;;;;;5043687;28;20052;-70
2024/01/24 09:49:50;;;;;;;37.63;6.57;;;9.60;99.90;;;;;;5092879;28;20540;-70
2024/01/24 09:52:24;;;;;;;44.80;6.03;;;10.10;99.90;;;;;;5042508;28;20657;-71
2024/01/24 09:54:55;;;;;;;42.10;6.47;;;9.60;99.90;;;;;;5059274;28;20060;-71
2024/01/24 09:57:22;;;;;;;42.08;7.18;;;9.60;99.90;;;;;;5059523;28;20052;-70
2024/01/24 09:59:48;;;;;;;40.88;7.50;;;9.60;99.90;;;;;;5060507;28;20044;-71
2024/01/24 10:02:14;;;;;;;34.53;6.40;;;9.60;99.90;;;;;;5043838;28;20048;-71
2024/01/24 10:04:43;;;;;;;36.83;6.43;;;9.60;99.90;;;;;;5061466;28;20053;-72
2024/01/24 10:07:10;;;;;;;39.13;6.47;;;9.60;99.90;;;;;;5059243;28;20040;-70
2024/01/24 10:09:36;;;;;;;42.25;7.15;;;9.60;99.90;;;;;;5041368;28;20257;-72
2024/01/24 10:12:02;;;;;;;42.60;7.55;;;10.00;99.90;;;;;;5060238;28;20048;-72
2024/01/24 10:14:28;;;;;;;40.47;6.63;;;9.70;99.90;;;;;;5077963;28;20051;-71
2024/01/24 10:16:54;;;;;;;42.90;6.53;;;9.70;99.90;;;;;;5061744;28;20532;-72
2024/01/24 10:19:24;;;;;;;39.05;5.55;;;9.70;99.90;;;;;;5064587;28;20045;-70
2024/01/24 10:21:51;;;;;;;38.17;6.40;;;9.70;99.90;;;;;;5064377;28;20455;-70
2024/01/24 10:24:17;;;;;;;36.70;5.40;;;9.70;99.90;;;;;;5047856;28;20087;-71
2024/01/24 10:26:46;;;;;;;37.70;7.30;;;9.70;99.90;;;;;;5063880;28;20694;-70
2024/01/24 10:29:12;;;;;;;34.88;5.95;;;9.80;99.90;;;;;;5045337;28;20135;-69
2024/01/24 10:31:38;;;;;;;31.20;5.63;;;9.80;99.90;;;;;;5063127;28;20143;-71
2024/01/24 10:34:04;;;;;;;44.03;6.80;;;9.80;99.90;;;;;;5060123;28;20406;-70
2024/01/24 10:36:32;;;;;;;40.08;8.20;;;9.80;99.90;;;;;;5046805;28;20560;-71
2024/01/24 10:39:00;;;;;;;40.78;7.25;;;9.80;99.90;;;;;;5048388;28;20587;-71
2024/01/24 10:41:40;;;;;;;41.95;7.40;;;9.90;99.90;;;;;;5065744;28;20131;-71
2024/01/24 10:44:10;;;;;;;40.47;6.35;;;9.90;99.90;;;;;;5066252;28;20036;-70
2024/01/24 10:46:39;;;;;;;40.72;6.82;;;9.90;99.90;;;;;;5063222;28;20039;-69
2024/01/24 10:49:05;;;;;;;41.95;6.68;;;9.90;99.90;;;;;;5064129;28;20052;-70
2024/01/24 10:51:32;;;;;;;43.08;6.93;;;9.90;99.90;;;;;;5064165;28;20037;-71
2024/01/24 10:53:59;;;;;;;38.58;6.28;;;9.90;99.90;;;;;;5062491;28;20962;-69
2024/01/24 10:56:27;;;;;;;26.75;5.60;;;9.90;99.90;;;;;;5059757;28;20725;-70
2024/01/24 10:58:55;;;;;;;46.88;6.85;;;10.00;99.90;;;;;;5045940;28;20048;-69
2024/01/24 11:01:21;;;;;;;34.25;5.07;;;9.80;99.90;;;;;;5062782;28;20491;-71
2024/01/24 11:03:49;;;;;;;33.30;6.30;;;9.80;99.90;;;;;;5048657;28;20041;-70
2024/01/24 11:06:17;;;;;;;36.42;7.03;;;10.10;99.90;;;;;;5064762;28;20066;-71
2024/01/24 11:08:48;;;;;;;40.50;6.78;;;9.90;99.90;;;;;;5064712;28;20041;-71
2024/01/24 11:11:18;;;;;;;41.95;7.07;;;9.90;99.90;;;;;;5048324;28;20049;-68
2024/01/24 11:13:46;;;;;;;42.60;6.07;;;9.90;99.90;;;;;;5062651;28;20065;-68
2024/01/24 11:16:34;;;;;;;32.80;6.53;;;9.90;99.90;;;;;;5047078;28;20378;-68
2024/01/24 11:19:20;;;;;;;33.85;5.53;;;9.90;99.90;;;;;;5047181;28;20040;-68
2024/01/24 11:21:47;;;;;;;35.58;6.28;;;9.90;99.90;;;;;;5047433;28;20803;-68
2024/01/24 11:24:13;;;;;;;30.20;5.68;;;9.90;99.90;;;;;;5062664;28;20121;-68
2024/01/24 11:26:38;;;;;;;36.97;5.90;;;9.90;99.90;;;;;;5047692;28;20502;-67
2024/01/24 11:29:12;;;;;;;37.00;5.72;;;9.90;99.90;;;;;;5048038;28;20052;-67
2024/01/24 11:31:39;;;;;;;41.25;6.13;;;9.90;99.90;;;;;;5060455;28;20461;-68
2024/01/24 11:34:06;;;;;;;38.70;6.85;;;9.90;99.90;;;;;;5061088;28;20052;-67
2024/01/24 11:36:40;;;;;;;36.22;6.45;;;9.90;99.90;;;;;;5062119;28;20078;-67
2024/01/24 11:39:30;;;;;;;34.42;5.40;;;9.90;99.90;;;;;;5061857;28;20045;-67
2024/01/24 11:42:22;;;;;;;36.75;5.68;;;9.90;99.90;;;;;;5062033;28;20508;-68
2024/01/24 11:44:47;;;;;;;;;;;9.80;99.90;;;;;;5054853;28;20077;-70
2024/01/24 11:47:13;;;;;;;39.85;6.47;;;9.90;99.90;;;;;;5045913;28;20325;-68
2024/01/24 11:49:39;;;;;;;39.70;6.25;;;9.90;99.90;;;;;;5060484;28;20040;-68
2024/01/24 11:52:05;;;;;;;34.53;6.53;;;9.90;99.90;;;;;;5062962;28;20517;-68
2024/01/24 11:54:30;;;;;;;37.15;5.97;;;9.90;99.90;;;;;;5065611;28;20040;-68
2024/01/24 11:56:58;;;;;;;37.97;5.88;;;9.80;99.90;;;;;;5063837;28;20194;-68
2024/01/24 11:59:23;;;;;;;35.63;5.53;;;9.90;99.90;;;;;;5047074;28;20037;-67
2024/01/24 12:01:49;;;;;;;28.48;5.20;;;9.90;99.90;;;;;;5047416;28;20126;-68
2024/01/24 12:04:15;;;;;;;38.38;6.35;;;9.90;99.90;;;;;;5047303;28;20416;-69
2024/01/24 12:06:41;;;;;;;39.72;6.82;;;9.90;99.90;;;;;;5062039;28;20047;-69
2024/01/24 12:09:09;;;;;;;37.03;4.90;;;10.00;99.90;;;;;;5062334;28;20044;-69
2024/01/24 12:11:35;;;;;;;37.83;5.95;;;10.00;99.90;;;;;;5059130;28;20041;-69
2024/01/24 12:14:01;;;;;;;37.92;7.00;;;10.00;99.90;;;;;;5043537;28;20756;-69
2024/01/24 12:16:28;;;;;;;36.92;5.65;;;10.00;99.90;;;;;;5063584;28;20448;-69
2024/01/24 12:18:57;;;;;;;41.60;5.63;;;10.00;99.90;;;;;;5058139;28;20056;-68
2024/01/24 12:21:23;;;;;;;35.42;5.88;;;10.00;99.90;;;;;;5059114;28;20708;-69
2024/01/24 12:23:48;;;;;;;31.10;5.50;;;10.00;99.90;;;;;;5043908;28;20109;-69
2024/01/24 12:26:15;;;;;;;36.35;5.63;;;10.00;99.90;;;;;;5045616;28;20457;-70
2024/01/24 12:28:41;;;;;;;40.55;6.72;;;10.10;99.90;;;;;;5063400;28;20610;-69
2024/01/24 12:31:08;;;;;;;36.10;6.22;;;10.10;99.90;;;;;;5057191;28;20044;-69
2024/01/24 12:33:34;;;;;;;34.30;5.95;;;10.10;99.90;;;;;;5063453;28;20485;-69
2024/01/24 12:36:04;;;;;;;30.00;5.43;;;10.10;99.90;;;;;;5060506;28;20067;-68
2024/01/24 12:38:30;;;;;;;36.15;6.03;;;10.20;99.90;;;;;;5045259;28;20046;-68